sensor_id;sensor_type;location;lat;lon;timestamp;P1;durP1;ratioP1;P2;durP2;ratioP2
38111;SDS011;64011;56.312;44.048;2022-12-07T00:00:35;12.90;;;4.25;;
38111;SDS011;64011;56.312;44.048;2022-12-07T00:02:36;14.13;;;4.22;;
38111;SDS011;64011;56.312;44.048;2022-12-07T00:04:36;10.65;;;3.25;;
38111;SDS011;64011;56.312;44.048;2022-12-07T00:06:38;12.32;;;3.42;;
38111;SDS011;64011;56.312;44.048;2022-12-07T00:08:41;16.75;;;4.63;;
38111;SDS011;64011;56.312;44.048;2022-12-07T00:10:42;13.35;;;3.65;;
38111;SDS011;64011;56.312;44.048;2022-12-07T00:12:42;10.18;;;2.45;;
38111;SDS011;64011;56.312;44.048;2022-12-07T00:14:43;17.67;;;4.50;;
38111;SDS011;64011;56.312;44.048;2022-12-07T00:16:44;13.60;;;4.15;;
38111;SDS011;64011;56.312;44.048;2022-12-07T00:18:45;15.80;;;4.70;;
38111;SDS011;64011;56.312;44.048;2022-12-07T00:20:46;17.70;;;5.20;;
38111;SDS011;64011;56.312;44.048;2022-12-07T00:22:47;14.25;;;4.55;;
38111;SDS011;64011;56.312;44.048;2022-12-07T00:24:49;16.42;;;5.07;;
38111;SDS011;64011;56.312;44.048;2022-12-07T00:26:49;11.68;;;3.30;;
38111;SDS011;64011;56.312;44.048;2022-12-07T00:28:51;14.88;;;4.50;;
38111;SDS011;64011;56.312;44.048;2022-12-07T00:30:53;15.57;;;4.88;;
38111;SDS011;64011;56.312;44.048;2022-12-07T00:33:00;17.30;;;4.93;;
38111;SDS011;64011;56.312;44.048;2022-12-07T00:35:01;11.95;;;3.42;;
38111;SDS011;64011;56.312;44.048;2022-12-07T00:37:02;14.43;;;4.57;;
38111;SDS011;64011;56.312;44.048;2022-12-07T00:39:03;10.68;;;3.30;;
38111;SDS011;64011;56.312;44.048;2022-12-07T00:41:06;4.05;;;1.63;;
38111;SDS011;64011;56.312;44.048;2022-12-07T00:43:07;9.75;;;2.78;;
38111;SDS011;64011;56.312;44.048;2022-12-07T00:45:08;15.40;;;5.10;;
38111;SDS011;64011;56.312;44.048;2022-12-07T00:47:09;12.00;;;3.22;;
38111;SDS011;64011;56.312;44.048;2022-12-07T00:49:10;13.30;;;4.28;;
38111;SDS011;64011;56.312;44.048;2022-12-07T00:51:11;12.60;;;3.78;;
38111;SDS011;64011;56.312;44.048;2022-12-07T00:53:12;11.52;;;3.10;;
38111;SDS011;64011;56.312;44.048;2022-12-07T00:55:13;7.43;;;2.35;;
38111;SDS011;64011;56.312;44.048;2022-12-07T00:57:15;16.80;;;4.75;;
38111;SDS011;64011;56.312;44.048;2022-12-07T00:59:16;16.08;;;4.68;;
38111;SDS011;64011;56.312;44.048;2022-12-07T01:01:17;12.98;;;4.65;;
38111;SDS011;64011;56.312;44.048;2022-12-07T01:03:17;16.23;;;4.55;;
38111;SDS011;64011;56.312;44.048;2022-12-07T01:05:18;14.23;;;3.80;;
38111;SDS011;64011;56.312;44.048;2022-12-07T01:07:19;7.40;;;2.45;;
38111;SDS011;64011;56.312;44.048;2022-12-07T01:09:20;15.45;;;4.18;;
38111;SDS011;64011;56.312;44.048;2022-12-07T01:11:21;14.23;;;3.00;;
38111;SDS011;64011;56.312;44.048;2022-12-07T01:13:25;8.88;;;2.03;;
38111;SDS011;64011;56.312;44.048;2022-12-07T01:15:25;15.07;;;3.35;;
38111;SDS011;64011;56.312;44.048;2022-12-07T01:17:26;9.27;;;2.40;;
38111;SDS011;64011;56.312;44.048;2022-12-07T01:19:28;16.65;;;5.20;;
38111;SDS011;64011;56.312;44.048;2022-12-07T01:21:29;15.93;;;5.65;;
38111;SDS011;64011;56.312;44.048;2022-12-07T01:23:31;17.15;;;4.25;;
38111;SDS011;64011;56.312;44.048;2022-12-07T01:25:32;15.20;;;4.60;;
38111;SDS011;64011;56.312;44.048;2022-12-07T01:27:33;12.98;;;2.83;;
38111;SDS011;64011;56.312;44.048;2022-12-07T01:29:35;5.55;;;1.60;;
38111;SDS011;64011;56.312;44.048;2022-12-07T01:31:36;16.60;;;4.97;;
38111;SDS011;64011;56.312;44.048;2022-12-07T01:33:37;9.05;;;2.45;;
38111;SDS011;64011;56.312;44.048;2022-12-07T01:35:38;10.48;;;3.03;;
38111;SDS011;64011;56.312;44.048;2022-12-07T01:37:39;14.60;;;4.28;;
38111;SDS011;64011;56.312;44.048;2022-12-07T01:39:40;13.80;;;4.60;;
38111;SDS011;64011;56.312;44.048;2022-12-07T01:41:40;12.05;;;4.00;;
38111;SDS011;64011;56.312;44.048;2022-12-07T01:46:15;16.13;;;5.22;;
38111;SDS011;64011;56.312;44.048;2022-12-07T01:48:16;12.77;;;3.67;;
38111;SDS011;64011;56.312;44.048;2022-12-07T01:50:18;17.85;;;5.50;;
38111;SDS011;64011;56.312;44.048;2022-12-07T01:52:21;21.20;;;5.13;;
38111;SDS011;64011;56.312;44.048;2022-12-07T01:54:24;14.20;;;3.95;;
38111;SDS011;64011;56.312;44.048;2022-12-07T01:56:25;18.52;;;5.28;;
38111;SDS011;64011;56.312;44.048;2022-12-07T01:58:26;17.98;;;5.18;;
38111;SDS011;64011;56.312;44.048;2022-12-07T02:00:28;15.30;;;5.00;;
38111;SDS011;64011;56.312;44.048;2022-12-07T02:02:30;12.98;;;3.30;;
38111;SDS011;64011;56.312;44.048;2022-12-07T02:04:33;7.75;;;2.13;;
38111;SDS011;64011;56.312;44.048;2022-12-07T02:06:35;16.80;;;5.00;;
38111;SDS011;64011;56.312;44.048;2022-12-07T02:08:37;16.60;;;4.72;;
38111;SDS011;64011;56.312;44.048;2022-12-07T02:10:38;13.55;;;3.88;;
38111;SDS011;64011;56.312;44.048;2022-12-07T02:12:39;13.23;;;4.07;;
38111;SDS011;64011;56.312;44.048;2022-12-07T02:15:00;14.57;;;3.50;;
38111;SDS011;64011;56.312;44.048;2022-12-07T02:17:03;14.50;;;4.03;;
38111;SDS011;64011;56.312;44.048;2022-12-07T02:19:24;6.78;;;1.92;;
38111;SDS011;64011;56.312;44.048;2022-12-07T02:21:36;8.45;;;2.35;;
38111;SDS011;64011;56.312;44.048;2022-12-07T02:23:40;11.60;;;3.83;;
38111;SDS011;64011;56.312;44.048;2022-12-07T02:25:53;13.00;;;3.88;;
38111;SDS011;64011;56.312;44.048;2022-12-07T02:28:03;16.88;;;4.95;;
38111;SDS011;64011;56.312;44.048;2022-12-07T02:30:08;6.53;;;2.10;;
38111;SDS011;64011;56.312;44.048;2022-12-07T02:32:10;17.30;;;5.03;;
38111;SDS011;64011;56.312;44.048;2022-12-07T02:34:16;14.93;;;5.45;;
38111;SDS011;64011;56.312;44.048;2022-12-07T02:36:21;7.43;;;2.78;;
38111;SDS011;64011;56.312;44.048;2022-12-07T02:38:26;10.52;;;2.55;;
38111;SDS011;64011;56.312;44.048;2022-12-07T02:40:31;13.65;;;4.10;;
38111;SDS011;64011;56.312;44.048;2022-12-07T02:42:36;15.52;;;4.80;;
38111;SDS011;64011;56.312;44.048;2022-12-07T02:44:38;14.80;;;4.38;;
38111;SDS011;64011;56.312;44.048;2022-12-07T02:46:42;16.50;;;4.43;;
38111;SDS011;64011;56.312;44.048;2022-12-07T02:48:44;11.98;;;3.20;;
38111;SDS011;64011;56.312;44.048;2022-12-07T02:50:48;15.15;;;4.50;;
38111;SDS011;64011;56.312;44.048;2022-12-07T02:52:49;7.82;;;2.00;;
38111;SDS011;64011;56.312;44.048;2022-12-07T02:54:50;13.32;;;3.50;;
38111;SDS011;64011;56.312;44.048;2022-12-07T02:56:51;14.80;;;4.65;;
38111;SDS011;64011;56.312;44.048;2022-12-07T02:58:56;9.05;;;2.25;;
38111;SDS011;64011;56.312;44.048;2022-12-07T03:01:04;16.85;;;5.20;;
38111;SDS011;64011;56.312;44.048;2022-12-07T03:03:12;16.08;;;4.85;;
38111;SDS011;64011;56.312;44.048;2022-12-07T03:05:21;16.38;;;5.10;;
38111;SDS011;64011;56.312;44.048;2022-12-07T03:07:32;14.50;;;4.10;;
38111;SDS011;64011;56.312;44.048;2022-12-07T03:09:35;16.45;;;4.78;;
38111;SDS011;64011;56.312;44.048;2022-12-07T03:11:42;8.20;;;2.25;;
38111;SDS011;64011;56.312;44.048;2022-12-07T03:13:46;12.65;;;3.42;;
38111;SDS011;64011;56.312;44.048;2022-12-07T03:15:50;12.57;;;3.85;;
38111;SDS011;64011;56.312;44.048;2022-12-07T03:17:54;15.68;;;5.18;;
38111;SDS011;64011;56.312;44.048;2022-12-07T03:19:58;16.65;;;5.65;;
38111;SDS011;64011;56.312;44.048;2022-12-07T03:22:01;18.08;;;5.50;;
38111;SDS011;64011;56.312;44.048;2022-12-07T03:24:04;17.38;;;5.45;;
38111;SDS011;64011;56.312;44.048;2022-12-07T03:26:08;10.98;;;3.13;;
38111;SDS011;64011;56.312;44.048;2022-12-07T03:28:10;12.10;;;3.20;;
38111;SDS011;64011;56.312;44.048;2022-12-07T03:30:12;15.98;;;4.60;;
38111;SDS011;64011;56.312;44.048;2022-12-07T03:32:17;12.73;;;4.18;;
38111;SDS011;64011;56.312;44.048;2022-12-07T03:34:22;19.98;;;5.43;;
38111;SDS011;64011;56.312;44.048;2022-12-07T03:36:30;18.00;;;5.15;;
38111;SDS011;64011;56.312;44.048;2022-12-07T03:38:32;18.17;;;5.72;;
38111;SDS011;64011;56.312;44.048;2022-12-07T03:40:37;16.58;;;4.75;;
38111;SDS011;64011;56.312;44.048;2022-12-07T03:42:40;15.90;;;4.97;;
38111;SDS011;64011;56.312;44.048;2022-12-07T03:44:41;14.98;;;4.63;;
38111;SDS011;64011;56.312;44.048;2022-12-07T03:46:43;19.40;;;5.65;;
38111;SDS011;64011;56.312;44.048;2022-12-07T03:48:46;14.68;;;4.82;;
38111;SDS011;64011;56.312;44.048;2022-12-07T03:50:52;18.25;;;5.50;;
38111;SDS011;64011;56.312;44.048;2022-12-07T03:52:58;17.58;;;5.63;;
38111;SDS011;64011;56.312;44.048;2022-12-07T03:55:03;18.73;;;5.60;;
38111;SDS011;64011;56.312;44.048;2022-12-07T03:57:06;16.30;;;5.18;;
38111;SDS011;64011;56.312;44.048;2022-12-07T03:59:08;19.30;;;6.70;;
38111;SDS011;64011;56.312;44.048;2022-12-07T04:01:09;19.05;;;5.63;;
38111;SDS011;64011;56.312;44.048;2022-12-07T04:03:10;15.52;;;5.22;;
38111;SDS011;64011;56.312;44.048;2022-12-07T04:05:11;17.92;;;5.57;;
38111;SDS011;64011;56.312;44.048;2022-12-07T04:07:12;17.83;;;5.32;;
38111;SDS011;64011;56.312;44.048;2022-12-07T04:09:14;14.32;;;4.75;;
38111;SDS011;64011;56.312;44.048;2022-12-07T04:11:18;17.95;;;5.32;;
38111;SDS011;64011;56.312;44.048;2022-12-07T04:13:18;20.23;;;6.13;;
38111;SDS011;64011;56.312;44.048;2022-12-07T04:15:19;19.77;;;6.18;;
38111;SDS011;64011;56.312;44.048;2022-12-07T04:17:20;16.75;;;6.00;;
38111;SDS011;64011;56.312;44.048;2022-12-07T04:19:21;20.48;;;6.30;;
38111;SDS011;64011;56.312;44.048;2022-12-07T04:21:24;10.30;;;2.85;;
38111;SDS011;64011;56.312;44.048;2022-12-07T04:23:24;19.08;;;6.32;;
38111;SDS011;64011;56.312;44.048;2022-12-07T04:25:26;14.05;;;4.53;;
38111;SDS011;64011;56.312;44.048;2022-12-07T04:27:27;16.80;;;5.30;;
38111;SDS011;64011;56.312;44.048;2022-12-07T04:29:28;19.38;;;6.47;;
38111;SDS011;64011;56.312;44.048;2022-12-07T04:31:28;24.92;;;9.30;;
38111;SDS011;64011;56.312;44.048;2022-12-07T04:33:29;9.63;;;3.10;;
38111;SDS011;64011;56.312;44.048;2022-12-07T04:35:30;20.50;;;6.55;;
38111;SDS011;64011;56.312;44.048;2022-12-07T04:37:30;22.65;;;7.60;;
38111;SDS011;64011;56.312;44.048;2022-12-07T04:39:32;21.63;;;6.90;;
38111;SDS011;64011;56.312;44.048;2022-12-07T04:41:34;21.65;;;7.90;;
38111;SDS011;64011;56.312;44.048;2022-12-07T04:43:35;10.00;;;3.53;;
38111;SDS011;64011;56.312;44.048;2022-12-07T04:45:36;21.67;;;7.43;;
38111;SDS011;64011;56.312;44.048;2022-12-07T04:47:36;23.10;;;8.07;;
38111;SDS011;64011;56.312;44.048;2022-12-07T04:49:37;19.48;;;5.63;;
38111;SDS011;64011;56.312;44.048;2022-12-07T04:51:38;23.38;;;7.97;;
38111;SDS011;64011;56.312;44.048;2022-12-07T04:53:38;15.27;;;5.53;;
38111;SDS011;64011;56.312;44.048;2022-12-07T04:55:39;17.23;;;5.85;;
38111;SDS011;64011;56.312;44.048;2022-12-07T04:57:41;25.80;;;9.15;;
38111;SDS011;64011;56.312;44.048;2022-12-07T04:59:42;20.08;;;7.22;;
38111;SDS011;64011;56.312;44.048;2022-12-07T05:01:42;21.85;;;8.25;;
38111;SDS011;64011;56.312;44.048;2022-12-07T05:03:43;25.60;;;9.13;;
38111;SDS011;64011;56.312;44.048;2022-12-07T05:05:44;25.60;;;7.90;;
38111;SDS011;64011;56.312;44.048;2022-12-07T05:07:45;21.83;;;8.48;;
38111;SDS011;64011;56.312;44.048;2022-12-07T05:09:46;13.07;;;4.22;;
38111;SDS011;64011;56.312;44.048;2022-12-07T05:11:46;18.30;;;7.05;;
38111;SDS011;64011;56.312;44.048;2022-12-07T05:13:49;26.08;;;8.45;;
38111;SDS011;64011;56.312;44.048;2022-12-07T05:15:49;26.65;;;10.40;;
38111;SDS011;64011;56.312;44.048;2022-12-07T05:17:50;5.70;;;2.28;;
38111;SDS011;64011;56.312;44.048;2022-12-07T05:19:51;23.05;;;8.50;;
38111;SDS011;64011;56.312;44.048;2022-12-07T05:21:51;27.98;;;8.45;;
38111;SDS011;64011;56.312;44.048;2022-12-07T05:23:52;24.80;;;8.70;;
38111;SDS011;64011;56.312;44.048;2022-12-07T05:25:53;24.83;;;8.15;;
38111;SDS011;64011;56.312;44.048;2022-12-07T05:27:54;22.50;;;7.20;;
38111;SDS011;64011;56.312;44.048;2022-12-07T05:29:56;28.75;;;8.07;;
38111;SDS011;64011;56.312;44.048;2022-12-07T05:31:57;24.02;;;8.40;;
38111;SDS011;64011;56.312;44.048;2022-12-07T05:33:58;18.27;;;6.20;;
38111;SDS011;64011;56.312;44.048;2022-12-07T05:35:58;24.48;;;8.57;;
38111;SDS011;64011;56.312;44.048;2022-12-07T05:37:59;19.50;;;5.85;;
38111;SDS011;64011;56.312;44.048;2022-12-07T05:40:00;20.25;;;7.93;;
38111;SDS011;64011;56.312;44.048;2022-12-07T05:42:00;24.85;;;7.63;;
38111;SDS011;64011;56.312;44.048;2022-12-07T05:44:02;13.55;;;4.72;;
38111;SDS011;64011;56.312;44.048;2022-12-07T05:46:04;16.73;;;5.18;;
38111;SDS011;64011;56.312;44.048;2022-12-07T05:48:05;27.10;;;9.60;;
38111;SDS011;64011;56.312;44.048;2022-12-07T05:50:06;22.23;;;7.65;;
38111;SDS011;64011;56.312;44.048;2022-12-07T05:52:07;16.85;;;5.00;;
38111;SDS011;64011;56.312;44.048;2022-12-07T05:54:08;16.38;;;5.20;;
38111;SDS011;64011;56.312;44.048;2022-12-07T05:56:09;18.00;;;5.50;;
38111;SDS011;64011;56.312;44.048;2022-12-07T05:58:10;20.90;;;7.45;;
38111;SDS011;64011;56.312;44.048;2022-12-07T06:00:14;17.65;;;6.57;;
38111;SDS011;64011;56.312;44.048;2022-12-07T06:02:16;22.67;;;7.93;;
38111;SDS011;64011;56.312;44.048;2022-12-07T06:04:17;11.38;;;3.25;;
38111;SDS011;64011;56.312;44.048;2022-12-07T06:06:18;21.83;;;7.95;;
38111;SDS011;64011;56.312;44.048;2022-12-07T06:08:18;22.15;;;8.50;;
38111;SDS011;64011;56.312;44.048;2022-12-07T06:10:22;18.25;;;7.03;;
38111;SDS011;64011;56.312;44.048;2022-12-07T06:12:23;23.52;;;8.25;;
38111;SDS011;64011;56.312;44.048;2022-12-07T06:14:24;20.70;;;6.15;;
38111;SDS011;64011;56.312;44.048;2022-12-07T06:16:24;20.98;;;7.28;;
38111;SDS011;64011;56.312;44.048;2022-12-07T06:18:26;14.15;;;4.20;;
38111;SDS011;64011;56.312;44.048;2022-12-07T06:20:27;17.73;;;4.90;;
38111;SDS011;64011;56.312;44.048;2022-12-07T06:22:28;21.83;;;7.00;;
38111;SDS011;64011;56.312;44.048;2022-12-07T06:24:29;21.10;;;7.55;;
38111;SDS011;64011;56.312;44.048;2022-12-07T06:26:29;17.77;;;5.68;;
38111;SDS011;64011;56.312;44.048;2022-12-07T06:28:30;17.85;;;6.18;;
38111;SDS011;64011;56.312;44.048;2022-12-07T06:30:31;18.55;;;6.20;;
38111;SDS011;64011;56.312;44.048;2022-12-07T06:32:31;22.38;;;8.25;;
38111;SDS011;64011;56.312;44.048;2022-12-07T06:34:33;21.35;;;8.05;;
38111;SDS011;64011;56.312;44.048;2022-12-07T06:36:34;21.88;;;8.65;;
38111;SDS011;64011;56.312;44.048;2022-12-07T06:38:35;19.77;;;7.25;;
38111;SDS011;64011;56.312;44.048;2022-12-07T06:40:36;19.20;;;7.53;;
38111;SDS011;64011;56.312;44.048;2022-12-07T06:42:36;23.58;;;8.13;;
38111;SDS011;64011;56.312;44.048;2022-12-07T06:44:37;21.08;;;7.97;;
38111;SDS011;64011;56.312;44.048;2022-12-07T06:46:38;23.40;;;8.80;;
38111;SDS011;64011;56.312;44.048;2022-12-07T06:48:39;22.38;;;8.88;;
38111;SDS011;64011;56.312;44.048;2022-12-07T06:50:41;27.40;;;10.85;;
38111;SDS011;64011;56.312;44.048;2022-12-07T06:52:44;25.08;;;9.98;;
38111;SDS011;64011;56.312;44.048;2022-12-07T06:54:44;29.05;;;10.55;;
38111;SDS011;64011;56.312;44.048;2022-12-07T06:56:45;38.40;;;14.95;;
38111;SDS011;64011;56.312;44.048;2022-12-07T06:58:46;41.00;;;16.35;;
38111;SDS011;64011;56.312;44.048;2022-12-07T07:00:47;28.48;;;11.07;;
38111;SDS011;64011;56.312;44.048;2022-12-07T07:02:48;36.78;;;15.07;;
38111;SDS011;64011;56.312;44.048;2022-12-07T07:04:49;30.15;;;12.55;;
38111;SDS011;64011;56.312;44.048;2022-12-07T07:06:51;29.40;;;10.73;;
38111;SDS011;64011;56.312;44.048;2022-12-07T07:08:52;22.52;;;8.88;;
38111;SDS011;64011;56.312;44.048;2022-12-07T07:10:52;21.30;;;8.13;;
38111;SDS011;64011;56.312;44.048;2022-12-07T07:12:53;18.67;;;7.18;;
38111;SDS011;64011;56.312;44.048;2022-12-07T07:14:54;24.40;;;9.50;;
38111;SDS011;64011;56.312;44.048;2022-12-07T07:16:54;20.52;;;8.07;;
38111;SDS011;64011;56.312;44.048;2022-12-07T07:18:55;20.27;;;7.68;;
38111;SDS011;64011;56.312;44.048;2022-12-07T07:20:56;16.30;;;5.90;;
38111;SDS011;64011;56.312;44.048;2022-12-07T07:22:58;24.02;;;8.90;;
38111;SDS011;64011;56.312;44.048;2022-12-07T07:24:59;20.42;;;8.07;;
38111;SDS011;64011;56.312;44.048;2022-12-07T07:27:00;16.38;;;6.38;;
38111;SDS011;64011;56.312;44.048;2022-12-07T07:29:00;22.20;;;7.93;;
38111;SDS011;64011;56.312;44.048;2022-12-07T07:31:01;20.30;;;7.60;;
38111;SDS011;64011;56.312;44.048;2022-12-07T07:33:02;11.88;;;4.20;;
38111;SDS011;64011;56.312;44.048;2022-12-07T07:35:04;24.42;;;9.77;;
38111;SDS011;64011;56.312;44.048;2022-12-07T07:37:05;21.23;;;8.93;;
38111;SDS011;64011;56.312;44.048;2022-12-07T07:39:07;25.42;;;10.68;;
38111;SDS011;64011;56.312;44.048;2022-12-07T07:41:08;23.35;;;10.50;;
38111;SDS011;64011;56.312;44.048;2022-12-07T07:43:08;23.98;;;9.68;;
38111;SDS011;64011;56.312;44.048;2022-12-07T07:45:09;28.42;;;11.02;;
38111;SDS011;64011;56.312;44.048;2022-12-07T07:47:10;27.65;;;12.30;;
38111;SDS011;64011;56.312;44.048;2022-12-07T07:49:11;23.58;;;10.52;;
38111;SDS011;64011;56.312;44.048;2022-12-07T07:51:12;23.48;;;10.05;;
38111;SDS011;64011;56.312;44.048;2022-12-07T07:53:12;23.98;;;9.38;;
38111;SDS011;64011;56.312;44.048;2022-12-07T07:55:14;21.27;;;9.55;;
38111;SDS011;64011;56.312;44.048;2022-12-07T07:57:16;23.73;;;9.07;;
38111;SDS011;64011;56.312;44.048;2022-12-07T07:59:17;21.33;;;8.32;;
38111;SDS011;64011;56.312;44.048;2022-12-07T08:01:17;25.55;;;9.75;;
38111;SDS011;64011;56.312;44.048;2022-12-07T08:03:18;20.83;;;8.18;;
38111;SDS011;64011;56.312;44.048;2022-12-07T08:05:19;23.75;;;9.45;;
38111;SDS011;64011;56.312;44.048;2022-12-07T08:07:19;28.17;;;10.57;;
38111;SDS011;64011;56.312;44.048;2022-12-07T08:09:20;22.98;;;9.30;;
38111;SDS011;64011;56.312;44.048;2022-12-07T08:11:22;25.52;;;10.93;;
38111;SDS011;64011;56.312;44.048;2022-12-07T08:13:23;25.52;;;11.02;;
38111;SDS011;64011;56.312;44.048;2022-12-07T08:15:24;22.92;;;10.35;;
38111;SDS011;64011;56.312;44.048;2022-12-07T08:17:26;24.73;;;10.57;;
38111;SDS011;64011;56.312;44.048;2022-12-07T08:19:26;23.85;;;9.30;;
38111;SDS011;64011;56.312;44.048;2022-12-07T08:21:27;24.48;;;10.07;;
38111;SDS011;64011;56.312;44.048;2022-12-07T08:23:28;25.02;;;10.45;;
38111;SDS011;64011;56.312;44.048;2022-12-07T08:25:28;24.88;;;10.45;;
38111;SDS011;64011;56.312;44.048;2022-12-07T08:27:31;23.58;;;8.73;;
38111;SDS011;64011;56.312;44.048;2022-12-07T08:29:32;23.30;;;10.85;;
38111;SDS011;64011;56.312;44.048;2022-12-07T08:31:32;24.45;;;10.27;;
38111;SDS011;64011;56.312;44.048;2022-12-07T08:33:33;20.55;;;7.30;;
38111;SDS011;64011;56.312;44.048;2022-12-07T08:35:34;20.85;;;8.50;;
38111;SDS011;64011;56.312;44.048;2022-12-07T08:37:35;23.25;;;9.23;;
38111;SDS011;64011;56.312;44.048;2022-12-07T08:39:36;23.60;;;9.35;;
38111;SDS011;64011;56.312;44.048;2022-12-07T08:41:37;21.55;;;9.05;;
38111;SDS011;64011;56.312;44.048;2022-12-07T08:43:39;22.45;;;9.60;;
38111;SDS011;64011;56.312;44.048;2022-12-07T08:45:40;22.83;;;9.00;;
38111;SDS011;64011;56.312;44.048;2022-12-07T08:47:42;22.88;;;9.10;;
38111;SDS011;64011;56.312;44.048;2022-12-07T08:49:46;23.48;;;9.70;;
38111;SDS011;64011;56.312;44.048;2022-12-07T08:51:48;23.70;;;9.60;;
38111;SDS011;64011;56.312;44.048;2022-12-07T08:53:50;20.50;;;8.43;;
38111;SDS011;64011;56.312;44.048;2022-12-07T08:55:51;20.63;;;8.00;;
38111;SDS011;64011;56.312;44.048;2022-12-07T08:57:52;20.73;;;8.40;;
38111;SDS011;64011;56.312;44.048;2022-12-07T08:59:54;23.52;;;8.55;;
38111;SDS011;64011;56.312;44.048;2022-12-07T09:01:55;20.00;;;7.93;;
38111;SDS011;64011;56.312;44.048;2022-12-07T09:03:56;20.92;;;7.80;;
38111;SDS011;64011;56.312;44.048;2022-12-07T09:05:56;15.75;;;5.25;;
38111;SDS011;64011;56.312;44.048;2022-12-07T09:07:58;23.33;;;7.75;;
38111;SDS011;64011;56.312;44.048;2022-12-07T09:10:01;21.20;;;8.43;;
38111;SDS011;64011;56.312;44.048;2022-12-07T09:12:03;22.17;;;8.75;;
38111;SDS011;64011;56.312;44.048;2022-12-07T09:14:09;22.23;;;8.73;;
38111;SDS011;64011;56.312;44.048;2022-12-07T09:16:11;17.92;;;6.70;;
38111;SDS011;64011;56.312;44.048;2022-12-07T09:18:12;23.17;;;9.20;;
38111;SDS011;64011;56.312;44.048;2022-12-07T09:20:13;24.33;;;10.23;;
38111;SDS011;64011;56.312;44.048;2022-12-07T09:22:13;25.20;;;11.48;;
38111;SDS011;64011;56.312;44.048;2022-12-07T09:24:14;26.30;;;11.07;;
38111;SDS011;64011;56.312;44.048;2022-12-07T09:26:18;28.08;;;12.35;;
38111;SDS011;64011;56.312;44.048;2022-12-07T09:28:30;26.00;;;11.43;;
38111;SDS011;64011;56.312;44.048;2022-12-07T09:30:31;25.42;;;10.43;;
38111;SDS011;64011;56.312;44.048;2022-12-07T09:32:43;22.13;;;9.05;;
38111;SDS011;64011;56.312;44.048;2022-12-07T09:34:57;24.38;;;9.95;;
38111;SDS011;64011;56.312;44.048;2022-12-07T09:36:57;22.65;;;9.65;;
38111;SDS011;64011;56.312;44.048;2022-12-07T09:38:58;24.08;;;10.73;;
38111;SDS011;64011;56.312;44.048;2022-12-07T09:41:03;26.08;;;9.80;;
38111;SDS011;64011;56.312;44.048;2022-12-07T09:43:04;24.27;;;10.07;;
38111;SDS011;64011;56.312;44.048;2022-12-07T09:45:05;23.95;;;11.00;;
38111;SDS011;64011;56.312;44.048;2022-12-07T09:47:10;23.50;;;8.98;;
38111;SDS011;64011;56.312;44.048;2022-12-07T09:49:13;24.50;;;10.75;;
38111;SDS011;64011;56.312;44.048;2022-12-07T09:51:17;23.58;;;9.63;;
38111;SDS011;64011;56.312;44.048;2022-12-07T09:53:23;21.60;;;7.95;;
38111;SDS011;64011;56.312;44.048;2022-12-07T09:55:26;25.23;;;10.27;;
38111;SDS011;64011;56.312;44.048;2022-12-07T09:57:29;22.52;;;9.48;;
38111;SDS011;64011;56.312;44.048;2022-12-07T09:59:31;21.92;;;9.02;;
38111;SDS011;64011;56.312;44.048;2022-12-07T10:01:32;22.13;;;8.90;;
38111;SDS011;64011;56.312;44.048;2022-12-07T10:03:34;21.55;;;9.13;;
38111;SDS011;64011;56.312;44.048;2022-12-07T10:05:37;23.13;;;9.77;;
38111;SDS011;64011;56.312;44.048;2022-12-07T10:07:40;20.90;;;9.00;;
38111;SDS011;64011;56.312;44.048;2022-12-07T10:09:40;19.60;;;7.97;;
38111;SDS011;64011;56.312;44.048;2022-12-07T10:14:10;24.58;;;9.43;;
38111;SDS011;64011;56.312;44.048;2022-12-07T10:16:26;23.85;;;9.18;;
38111;SDS011;64011;56.312;44.048;2022-12-07T10:18:33;16.05;;;5.32;;
38111;SDS011;64011;56.312;44.048;2022-12-07T10:20:34;20.52;;;7.75;;
38111;SDS011;64011;56.312;44.048;2022-12-07T10:22:37;21.58;;;8.57;;
38111;SDS011;64011;56.312;44.048;2022-12-07T10:24:38;23.08;;;9.10;;
38111;SDS011;64011;56.312;44.048;2022-12-07T10:26:40;17.80;;;6.07;;
38111;SDS011;64011;56.312;44.048;2022-12-07T10:30:50;21.85;;;9.35;;
38111;SDS011;64011;56.312;44.048;2022-12-07T10:32:55;24.42;;;9.52;;
38111;SDS011;64011;56.312;44.048;2022-12-07T10:35:15;23.60;;;9.52;;
38111;SDS011;64011;56.312;44.048;2022-12-07T10:37:20;21.27;;;7.40;;
38111;SDS011;64011;56.312;44.048;2022-12-07T10:39:22;23.98;;;8.57;;
38111;SDS011;64011;56.312;44.048;2022-12-07T10:41:23;19.98;;;7.88;;
38111;SDS011;64011;56.312;44.048;2022-12-07T10:43:24;23.02;;;8.75;;
38111;SDS011;64011;56.312;44.048;2022-12-07T10:45:24;20.02;;;6.65;;
38111;SDS011;64011;56.312;44.048;2022-12-07T10:47:29;29.48;;;7.53;;
38111;SDS011;64011;56.312;44.048;2022-12-07T10:49:40;21.27;;;7.70;;
38111;SDS011;64011;56.312;44.048;2022-12-07T10:52:23;20.67;;;8.27;;
38111;SDS011;64011;56.312;44.048;2022-12-07T10:54:38;22.88;;;9.45;;
38111;SDS011;64011;56.312;44.048;2022-12-07T10:59:24;22.65;;;8.90;;
38111;SDS011;64011;56.312;44.048;2022-12-07T11:01:49;22.70;;;8.73;;
38111;SDS011;64011;56.312;44.048;2022-12-07T11:03:55;18.48;;;6.38;;
38111;SDS011;64011;56.312;44.048;2022-12-07T11:06:10;21.35;;;8.23;;
38111;SDS011;64011;56.312;44.048;2022-12-07T11:08:21;20.38;;;8.00;;
38111;SDS011;64011;56.312;44.048;2022-12-07T11:10:37;21.65;;;8.38;;
38111;SDS011;64011;56.312;44.048;2022-12-07T11:12:54;21.60;;;8.25;;
38111;SDS011;64011;56.312;44.048;2022-12-07T11:15:16;18.92;;;6.20;;
38111;SDS011;64011;56.312;44.048;2022-12-07T11:17:20;20.67;;;8.60;;
38111;SDS011;64011;56.312;44.048;2022-12-07T11:21:48;20.17;;;7.80;;
38111;SDS011;64011;56.312;44.048;2022-12-07T11:23:56;18.92;;;7.20;;
38111;SDS011;64011;56.312;44.048;2022-12-07T11:26:02;23.05;;;8.80;;
38111;SDS011;64011;56.312;44.048;2022-12-07T11:28:13;18.73;;;6.47;;
38111;SDS011;64011;56.312;44.048;2022-12-07T11:30:22;22.35;;;8.48;;
38111;SDS011;64011;56.312;44.048;2022-12-07T11:32:28;15.18;;;5.10;;
38111;SDS011;64011;56.312;44.048;2022-12-07T11:34:39;12.77;;;4.32;;
38111;SDS011;64011;56.312;44.048;2022-12-07T11:36:46;20.45;;;7.38;;
38111;SDS011;64011;56.312;44.048;2022-12-07T11:38:50;9.60;;;2.75;;
38111;SDS011;64011;56.312;44.048;2022-12-07T11:40:55;22.15;;;8.90;;
38111;SDS011;64011;56.312;44.048;2022-12-07T11:42:59;21.60;;;8.80;;
38111;SDS011;64011;56.312;44.048;2022-12-07T11:45:03;21.05;;;8.05;;
38111;SDS011;64011;56.312;44.048;2022-12-07T11:47:12;26.13;;;9.60;;
38111;SDS011;64011;56.312;44.048;2022-12-07T11:49:16;23.42;;;9.40;;
38111;SDS011;64011;56.312;44.048;2022-12-07T11:51:21;21.05;;;9.05;;
38111;SDS011;64011;56.312;44.048;2022-12-07T11:53:24;20.60;;;7.63;;
38111;SDS011;64011;56.312;44.048;2022-12-07T11:55:29;20.67;;;8.43;;
38111;SDS011;64011;56.312;44.048;2022-12-07T11:57:36;27.48;;;9.85;;
38111;SDS011;64011;56.312;44.048;2022-12-07T11:59:39;15.68;;;5.15;;
38111;SDS011;64011;56.312;44.048;2022-12-07T12:01:46;23.92;;;9.73;;
38111;SDS011;64011;56.312;44.048;2022-12-07T12:03:51;22.80;;;9.32;;
38111;SDS011;64011;56.312;44.048;2022-12-07T12:05:54;17.75;;;6.00;;
38111;SDS011;64011;56.312;44.048;2022-12-07T12:07:58;19.42;;;6.82;;
38111;SDS011;64011;56.312;44.048;2022-12-07T12:10:04;12.35;;;3.92;;